sensor_id;sensor_type;location;lat;lon;timestamp;P1;durP1;ratioP1;P2;durP2;ratioP2
50681;SDS011;36779;52.168;20.878;2024-03-22T00:00:58;56.80;;;20.30;;
50681;SDS011;36779;52.168;20.878;2024-03-22T00:03:43;49.30;;;20.10;;
50681;SDS011;36779;52.168;20.878;2024-03-22T00:06:21;52.40;;;19.90;;
50681;SDS011;36779;52.168;20.878;2024-03-22T00:09:23;49.50;;;20.40;;
50681;SDS011;36779;52.168;20.878;2024-03-22T00:12:23;51.60;;;20.50;;
50681;SDS011;36779;52.168;20.878;2024-03-22T00:15:06;54.10;;;21.80;;
50681;SDS011;36779;52.168;20.878;2024-03-22T00:18:06;51.90;;;21.80;;
50681;SDS011;36779;52.168;20.878;2024-03-22T00:20:44;51.80;;;20.70;;
50681;SDS011;36779;52.168;20.878;2024-03-22T00:23:26;58.80;;;22.40;;
50681;SDS011;36779;52.168;20.878;2024-03-22T00:26:10;53.50;;;21.40;;
50681;SDS011;36779;52.168;20.878;2024-03-22T00:29:02;50.30;;;20.50;;
50681;SDS011;36779;52.168;20.878;2024-03-22T00:31:54;55.50;;;20.90;;
50681;SDS011;36779;52.168;20.878;2024-03-22T00:34:46;58.10;;;21.00;;
50681;SDS011;36779;52.168;20.878;2024-03-22T00:37:42;51.10;;;21.10;;
50681;SDS011;36779;52.168;20.878;2024-03-22T00:40:34;58.50;;;21.50;;
50681;SDS011;36779;52.168;20.878;2024-03-22T00:43:23;58.30;;;21.70;;
50681;SDS011;36779;52.168;20.878;2024-03-22T00:46:17;59.90;;;22.20;;
50681;SDS011;36779;52.168;20.878;2024-03-22T00:48:51;64.30;;;23.30;;
50681;SDS011;36779;52.168;20.878;2024-03-22T00:51:43;56.80;;;22.60;;
50681;SDS011;36779;52.168;20.878;2024-03-22T00:54:38;57.80;;;23.30;;
50681;SDS011;36779;52.168;20.878;2024-03-22T00:57:30;55.60;;;21.10;;
50681;SDS011;36779;52.168;20.878;2024-03-22T01:00:24;55.60;;;22.30;;
50681;SDS011;36779;52.168;20.878;2024-03-22T01:03:05;62.20;;;23.40;;
50681;SDS011;36779;52.168;20.878;2024-03-22T01:05:58;60.60;;;22.00;;
50681;SDS011;36779;52.168;20.878;2024-03-22T01:08:32;56.50;;;21.80;;
50681;SDS011;36779;52.168;20.878;2024-03-22T01:11:21;52.70;;;21.50;;
50681;SDS011;36779;52.168;20.878;2024-03-22T01:14:18;50.60;;;21.00;;
50681;SDS011;36779;52.168;20.878;2024-03-22T01:17:04;61.90;;;22.20;;
50681;SDS011;36779;52.168;20.878;2024-03-22T01:19:46;60.70;;;23.20;;
50681;SDS011;36779;52.168;20.878;2024-03-22T01:22:30;67.30;;;24.10;;
50681;SDS011;36779;52.168;20.878;2024-03-22T01:25:24;64.50;;;25.00;;
50681;SDS011;36779;52.168;20.878;2024-03-22T01:28:26;70.50;;;26.10;;
50681;SDS011;36779;52.168;20.878;2024-03-22T01:31:09;68.30;;;27.20;;
50681;SDS011;36779;52.168;20.878;2024-03-22T01:33:57;70.70;;;27.50;;
50681;SDS011;36779;52.168;20.878;2024-03-22T01:36:44;75.00;;;26.20;;
50681;SDS011;36779;52.168;20.878;2024-03-22T01:39:18;67.00;;;25.90;;
50681;SDS011;36779;52.168;20.878;2024-03-22T01:42:14;66.40;;;25.90;;
50681;SDS011;36779;52.168;20.878;2024-03-22T01:45:14;61.20;;;22.60;;
50681;SDS011;36779;52.168;20.878;2024-03-22T01:48:31;59.70;;;21.80;;
50681;SDS011;36779;52.168;20.878;2024-03-22T01:51:27;64.50;;;24.90;;
50681;SDS011;36779;52.168;20.878;2024-03-22T01:54:28;71.80;;;27.00;;
50681;SDS011;36779;52.168;20.878;2024-03-22T01:57:22;68.20;;;24.60;;
50681;SDS011;36779;52.168;20.878;2024-03-22T02:00:24;65.10;;;25.90;;
50681;SDS011;36779;52.168;20.878;2024-03-22T02:03:20;67.90;;;25.90;;
50681;SDS011;36779;52.168;20.878;2024-03-22T02:06:12;69.70;;;24.60;;
50681;SDS011;36779;52.168;20.878;2024-03-22T02:09:07;68.40;;;26.30;;
50681;SDS011;36779;52.168;20.878;2024-03-22T02:11:59;57.70;;;24.60;;
50681;SDS011;36779;52.168;20.878;2024-03-22T02:14:53;70.90;;;26.20;;
50681;SDS011;36779;52.168;20.878;2024-03-22T02:17:42;71.80;;;26.80;;
50681;SDS011;36779;52.168;20.878;2024-03-22T02:20:34;66.10;;;25.20;;
50681;SDS011;36779;52.168;20.878;2024-03-22T02:23:32;69.20;;;25.60;;
50681;SDS011;36779;52.168;20.878;2024-03-22T02:26:20;81.20;;;28.30;;
50681;SDS011;36779;52.168;20.878;2024-03-22T02:29:17;72.00;;;26.30;;
50681;SDS011;36779;52.168;20.878;2024-03-22T02:32:12;78.00;;;26.30;;
50681;SDS011;36779;52.168;20.878;2024-03-22T02:34:58;83.00;;;26.50;;
50681;SDS011;36779;52.168;20.878;2024-03-22T02:37:54;75.40;;;26.30;;
50681;SDS011;36779;52.168;20.878;2024-03-22T02:41:15;60.20;;;21.70;;
50681;SDS011;36779;52.168;20.878;2024-03-22T02:44:10;48.30;;;18.10;;
50681;SDS011;36779;52.168;20.878;2024-03-22T02:47:02;54.50;;;17.40;;
50681;SDS011;36779;52.168;20.878;2024-03-22T02:49:56;53.50;;;19.10;;
50681;SDS011;36779;52.168;20.878;2024-03-22T02:52:37;58.10;;;21.80;;
50681;SDS011;36779;52.168;20.878;2024-03-22T02:55:36;66.30;;;24.30;;
50681;SDS011;36779;52.168;20.878;2024-03-22T02:58:30;69.10;;;24.10;;
50681;SDS011;36779;52.168;20.878;2024-03-22T03:01:27;72.30;;;25.10;;
50681;SDS011;36779;52.168;20.878;2024-03-22T03:04:19;57.20;;;19.50;;
50681;SDS011;36779;52.168;20.878;2024-03-22T03:07:32;64.50;;;22.50;;
50681;SDS011;36779;52.168;20.878;2024-03-22T03:10:26;64.10;;;21.80;;
50681;SDS011;36779;52.168;20.878;2024-03-22T03:13:30;68.90;;;25.00;;
50681;SDS011;36779;52.168;20.878;2024-03-22T03:16:23;66.90;;;23.10;;
50681;SDS011;36779;52.168;20.878;2024-03-22T03:19:23;72.20;;;23.90;;
50681;SDS011;36779;52.168;20.878;2024-03-22T03:22:18;42.00;;;16.20;;
50681;SDS011;36779;52.168;20.878;2024-03-22T03:25:10;48.90;;;16.00;;
50681;SDS011;36779;52.168;20.878;2024-03-22T03:28:03;53.10;;;18.10;;
50681;SDS011;36779;52.168;20.878;2024-03-22T03:30:59;36.50;;;13.30;;
50681;SDS011;36779;52.168;20.878;2024-03-22T03:34:02;48.40;;;16.60;;
50681;SDS011;36779;52.168;20.878;2024-03-22T03:36:54;50.60;;;18.20;;
50681;SDS011;36779;52.168;20.878;2024-03-22T03:39:47;46.30;;;17.50;;
50681;SDS011;36779;52.168;20.878;2024-03-22T03:42:41;57.90;;;20.60;;
50681;SDS011;36779;52.168;20.878;2024-03-22T03:45:35;58.20;;;20.00;;
50681;SDS011;36779;52.168;20.878;2024-03-22T03:48:31;47.40;;;18.70;;
50681;SDS011;36779;52.168;20.878;2024-03-22T03:54:32;46.20;;;15.70;;
50681;SDS011;36779;52.168;20.878;2024-03-22T03:57:29;32.80;;;12.90;;
50681;SDS011;36779;52.168;20.878;2024-03-22T04:00:15;56.20;;;18.30;;
50681;SDS011;36779;52.168;20.878;2024-03-22T04:03:32;36.90;;;13.40;;
50681;SDS011;36779;52.168;20.878;2024-03-22T04:06:25;37.10;;;14.90;;
50681;SDS011;36779;52.168;20.878;2024-03-22T04:09:21;40.40;;;13.60;;
50681;SDS011;36779;52.168;20.878;2024-03-22T04:12:15;38.00;;;13.50;;
50681;SDS011;36779;52.168;20.878;2024-03-22T04:15:10;37.60;;;13.10;;
50681;SDS011;36779;52.168;20.878;2024-03-22T04:18:02;40.40;;;13.30;;
50681;SDS011;36779;52.168;20.878;2024-03-22T04:20:59;37.00;;;12.70;;
50681;SDS011;36779;52.168;20.878;2024-03-22T04:23:55;40.00;;;13.20;;
50681;SDS011;36779;52.168;20.878;2024-03-22T04:26:56;31.90;;;10.70;;
50681;SDS011;36779;52.168;20.878;2024-03-22T04:29:49;38.90;;;12.70;;
50681;SDS011;36779;52.168;20.878;2024-03-22T04:32:41;35.60;;;13.00;;
50681;SDS011;36779;52.168;20.878;2024-03-22T04:35:35;37.50;;;12.70;;
50681;SDS011;36779;52.168;20.878;2024-03-22T04:38:33;32.50;;;12.40;;
50681;SDS011;36779;52.168;20.878;2024-03-22T04:41:25;40.90;;;14.70;;
50681;SDS011;36779;52.168;20.878;2024-03-22T04:44:20;41.50;;;13.10;;
50681;SDS011;36779;52.168;20.878;2024-03-22T04:47:13;39.50;;;13.20;;
50681;SDS011;36779;52.168;20.878;2024-03-22T04:51:09;38.70;;;13.30;;
50681;SDS011;36779;52.168;20.878;2024-03-22T04:54:07;43.60;;;15.60;;
50681;SDS011;36779;52.168;20.878;2024-03-22T04:57:22;41.40;;;14.10;;
50681;SDS011;36779;52.168;20.878;2024-03-22T05:00:24;32.70;;;12.00;;
50681;SDS011;36779;52.168;20.878;2024-03-22T05:03:16;24.90;;;9.30;;
50681;SDS011;36779;52.168;20.878;2024-03-22T05:06:10;33.10;;;11.90;;
50681;SDS011;36779;52.168;20.878;2024-03-22T05:09:09;43.40;;;14.80;;
50681;SDS011;36779;52.168;20.878;2024-03-22T05:12:05;38.10;;;13.90;;
50681;SDS011;36779;52.168;20.878;2024-03-22T05:15:08;37.70;;;13.30;;
50681;SDS011;36779;52.168;20.878;2024-03-22T05:18:08;48.10;;;15.90;;
50681;SDS011;36779;52.168;20.878;2024-03-22T05:21:22;43.20;;;14.40;;
50681;SDS011;36779;52.168;20.878;2024-03-22T05:24:14;43.40;;;15.40;;
50681;SDS011;36779;52.168;20.878;2024-03-22T05:27:08;50.70;;;16.90;;
50681;SDS011;36779;52.168;20.878;2024-03-22T05:30:09;45.40;;;15.50;;
50681;SDS011;36779;52.168;20.878;2024-03-22T05:33:06;29.70;;;11.30;;
50681;SDS011;36779;52.168;20.878;2024-03-22T05:35:59;36.20;;;14.30;;
50681;SDS011;36779;52.168;20.878;2024-03-22T05:38:51;40.80;;;15.70;;
50681;SDS011;36779;52.168;20.878;2024-03-22T05:41:43;49.90;;;16.40;;
50681;SDS011;36779;52.168;20.878;2024-03-22T05:44:38;47.50;;;16.80;;
50681;SDS011;36779;52.168;20.878;2024-03-22T05:47:38;45.50;;;17.20;;
50681;SDS011;36779;52.168;20.878;2024-03-22T05:50:38;45.00;;;15.50;;
50681;SDS011;36779;52.168;20.878;2024-03-22T05:53:14;44.70;;;16.10;;
50681;SDS011;36779;52.168;20.878;2024-03-22T05:56:19;45.40;;;16.00;;
50681;SDS011;36779;52.168;20.878;2024-03-22T05:59:12;49.40;;;16.30;;
50681;SDS011;36779;52.168;20.878;2024-03-22T06:02:08;40.90;;;15.70;;
50681;SDS011;36779;52.168;20.878;2024-03-22T06:05:02;49.80;;;17.10;;
50681;SDS011;36779;52.168;20.878;2024-03-22T06:07:55;53.30;;;17.80;;
50681;SDS011;36779;52.168;20.878;2024-03-22T06:10:42;43.10;;;16.60;;
50681;SDS011;36779;52.168;20.878;2024-03-22T06:13:34;46.90;;;16.20;;
50681;SDS011;36779;52.168;20.878;2024-03-22T06:16:17;45.70;;;15.90;;
50681;SDS011;36779;52.168;20.878;2024-03-22T06:19:14;44.30;;;15.60;;
50681;SDS011;36779;52.168;20.878;2024-03-22T06:22:08;40.60;;;14.70;;
50681;SDS011;36779;52.168;20.878;2024-03-22T06:25:01;42.40;;;15.80;;
50681;SDS011;36779;52.168;20.878;2024-03-22T06:27:54;37.70;;;14.40;;
50681;SDS011;36779;52.168;20.878;2024-03-22T06:30:50;37.70;;;14.10;;
50681;SDS011;36779;52.168;20.878;2024-03-22T06:33:43;48.80;;;16.50;;
50681;SDS011;36779;52.168;20.878;2024-03-22T06:36:35;46.50;;;15.50;;
50681;SDS011;36779;52.168;20.878;2024-03-22T06:39:27;40.30;;;15.00;;
50681;SDS011;36779;52.168;20.878;2024-03-22T06:42:20;44.70;;;16.40;;
50681;SDS011;36779;52.168;20.878;2024-03-22T06:45:12;40.50;;;14.20;;
50681;SDS011;36779;52.168;20.878;2024-03-22T06:48:08;39.70;;;14.10;;
50681;SDS011;36779;52.168;20.878;2024-03-22T06:51:03;36.70;;;14.40;;
50681;SDS011;36779;52.168;20.878;2024-03-22T06:53:49;36.20;;;13.60;;
50681;SDS011;36779;52.168;20.878;2024-03-22T06:56:41;40.00;;;15.00;;
50681;SDS011;36779;52.168;20.878;2024-03-22T06:59:36;40.70;;;14.50;;
50681;SDS011;36779;52.168;20.878;2024-03-22T07:02:14;39.30;;;15.20;;
50681;SDS011;36779;52.168;20.878;2024-03-22T07:05:08;42.70;;;14.40;;
50681;SDS011;36779;52.168;20.878;2024-03-22T07:08:01;39.90;;;14.60;;
50681;SDS011;36779;52.168;20.878;2024-03-22T07:10:53;40.20;;;14.00;;
50681;SDS011;36779;52.168;20.878;2024-03-22T07:13:46;39.90;;;13.50;;
50681;SDS011;36779;52.168;20.878;2024-03-22T07:19:28;34.90;;;12.30;;
50681;SDS011;36779;52.168;20.878;2024-03-22T07:22:26;34.30;;;13.40;;
50681;SDS011;36779;52.168;20.878;2024-03-22T07:25:17;33.20;;;12.90;;
50681;SDS011;36779;52.168;20.878;2024-03-22T07:28:21;35.10;;;13.10;;
50681;SDS011;36779;52.168;20.878;2024-03-22T07:31:13;39.60;;;15.80;;
50681;SDS011;36779;52.168;20.878;2024-03-22T07:34:08;40.30;;;16.00;;
50681;SDS011;36779;52.168;20.878;2024-03-22T07:36:59;40.70;;;14.70;;
50681;SDS011;36779;52.168;20.878;2024-03-22T07:40:06;39.90;;;14.00;;
50681;SDS011;36779;52.168;20.878;2024-03-22T07:42:58;32.30;;;12.50;;
50681;SDS011;36779;52.168;20.878;2024-03-22T07:45:47;36.50;;;13.10;;
50681;SDS011;36779;52.168;20.878;2024-03-22T07:48:41;28.80;;;12.30;;
50681;SDS011;36779;52.168;20.878;2024-03-22T07:51:34;35.30;;;13.80;;
50681;SDS011;36779;52.168;20.878;2024-03-22T07:54:15;33.70;;;13.70;;
50681;SDS011;36779;52.168;20.878;2024-03-22T07:57:08;35.80;;;13.40;;
50681;SDS011;36779;52.168;20.878;2024-03-22T07:59:59;32.50;;;12.60;;
50681;SDS011;36779;52.168;20.878;2024-03-22T08:02:39;36.20;;;13.70;;
50681;SDS011;36779;52.168;20.878;2024-03-22T08:05:14;34.20;;;13.50;;
50681;SDS011;36779;52.168;20.878;2024-03-22T08:07:47;35.80;;;14.80;;
50681;SDS011;36779;52.168;20.878;2024-03-22T08:10:20;33.30;;;12.80;;
50681;SDS011;36779;52.168;20.878;2024-03-22T08:13:13;33.00;;;13.20;;
50681;SDS011;36779;52.168;20.878;2024-03-22T08:16:05;37.10;;;13.70;;
50681;SDS011;36779;52.168;20.878;2024-03-22T08:18:40;36.20;;;12.90;;
50681;SDS011;36779;52.168;20.878;2024-03-22T08:21:23;48.60;;;14.80;;
50681;SDS011;36779;52.168;20.878;2024-03-22T08:23:58;40.20;;;15.70;;
50681;SDS011;36779;52.168;20.878;2024-03-22T08:26:40;37.20;;;14.40;;
50681;SDS011;36779;52.168;20.878;2024-03-22T08:29:25;39.70;;;14.50;;
50681;SDS011;36779;52.168;20.878;2024-03-22T08:31:57;36.70;;;14.00;;
50681;SDS011;36779;52.168;20.878;2024-03-22T08:34:32;36.40;;;15.60;;
50681;SDS011;36779;52.168;20.878;2024-03-22T08:37:17;38.00;;;14.40;;
50681;SDS011;36779;52.168;20.878;2024-03-22T08:39:51;32.80;;;14.00;;
50681;SDS011;36779;52.168;20.878;2024-03-22T08:42:25;29.10;;;12.60;;
50681;SDS011;36779;52.168;20.878;2024-03-22T08:45:21;28.70;;;11.80;;
50681;SDS011;36779;52.168;20.878;2024-03-22T08:47:52;30.30;;;12.30;;
50681;SDS011;36779;52.168;20.878;2024-03-22T08:50:47;26.40;;;12.00;;
50681;SDS011;36779;52.168;20.878;2024-03-22T08:53:40;28.60;;;11.80;;
50681;SDS011;36779;52.168;20.878;2024-03-22T08:56:22;26.20;;;11.40;;
50681;SDS011;36779;52.168;20.878;2024-03-22T08:59:14;26.30;;;11.30;;
50681;SDS011;36779;52.168;20.878;2024-03-22T09:01:54;30.30;;;12.50;;
50681;SDS011;36779;52.168;20.878;2024-03-22T09:04:46;27.80;;;11.80;;
50681;SDS011;36779;52.168;20.878;2024-03-22T09:07:19;35.20;;;14.40;;
50681;SDS011;36779;52.168;20.878;2024-03-22T09:09:55;33.50;;;13.60;;
50681;SDS011;36779;52.168;20.878;2024-03-22T09:12:47;34.00;;;14.30;;
50681;SDS011;36779;52.168;20.878;2024-03-22T09:15:30;36.50;;;14.90;;
50681;SDS011;36779;52.168;20.878;2024-03-22T09:18:02;34.20;;;14.40;;
50681;SDS011;36779;52.168;20.878;2024-03-22T09:20:37;34.00;;;13.30;;
50681;SDS011;36779;52.168;20.878;2024-03-22T09:23:12;38.40;;;14.60;;
50681;SDS011;36779;52.168;20.878;2024-03-22T09:25:55;39.70;;;15.90;;
50681;SDS011;36779;52.168;20.878;2024-03-22T09:28:27;31.80;;;13.40;;
50681;SDS011;36779;52.168;20.878;2024-03-22T09:31:04;29.70;;;13.10;;
50681;SDS011;36779;52.168;20.878;2024-03-22T09:33:47;29.30;;;13.00;;
50681;SDS011;36779;52.168;20.878;2024-03-22T09:36:22;30.20;;;12.50;;
50681;SDS011;36779;52.168;20.878;2024-03-22T09:39:04;24.50;;;11.00;;
50681;SDS011;36779;52.168;20.878;2024-03-22T09:41:57;27.50;;;11.50;;
50681;SDS011;36779;52.168;20.878;2024-03-22T09:44:51;33.20;;;11.40;;
50681;SDS011;36779;52.168;20.878;2024-03-22T09:47:49;27.00;;;11.60;;
50681;SDS011;36779;52.168;20.878;2024-03-22T09:50:36;31.10;;;11.90;;
50681;SDS011;36779;52.168;20.878;2024-03-22T09:53:29;26.20;;;11.60;;
50681;SDS011;36779;52.168;20.878;2024-03-22T09:56:22;26.20;;;11.50;;
50681;SDS011;36779;52.168;20.878;2024-03-22T09:59:18;26.00;;;10.90;;
50681;SDS011;36779;52.168;20.878;2024-03-22T10:02:11;29.90;;;12.50;;
50681;SDS011;36779;52.168;20.878;2024-03-22T10:05:04;33.90;;;15.00;;
50681;SDS011;36779;52.168;20.878;2024-03-22T10:07:57;31.20;;;14.10;;
50681;SDS011;36779;52.168;20.878;2024-03-22T10:10:49;27.80;;;12.30;;
50681;SDS011;36779;52.168;20.878;2024-03-22T10:13:41;34.20;;;15.20;;
50681;SDS011;36779;52.168;20.878;2024-03-22T10:16:38;32.20;;;13.90;;
50681;SDS011;36779;52.168;20.878;2024-03-22T10:19:35;30.60;;;13.40;;
50681;SDS011;36779;52.168;20.878;2024-03-22T10:22:30;30.60;;;12.50;;
50681;SDS011;36779;52.168;20.878;2024-03-22T10:25:01;28.10;;;12.30;;
50681;SDS011;36779;52.168;20.878;2024-03-22T10:27:49;26.90;;;12.10;;
50681;SDS011;36779;52.168;20.878;2024-03-22T10:30:42;27.70;;;11.80;;
50681;SDS011;36779;52.168;20.878;2024-03-22T10:33:38;31.70;;;12.20;;
50681;SDS011;36779;52.168;20.878;2024-03-22T10:36:31;29.40;;;12.30;;
50681;SDS011;36779;52.168;20.878;2024-03-22T10:39:15;33.00;;;13.80;;
50681;SDS011;36779;52.168;20.878;2024-03-22T10:42:09;35.40;;;14.80;;
50681;SDS011;36779;52.168;20.878;2024-03-22T10:44:53;35.10;;;15.00;;
50681;SDS011;36779;52.168;20.878;2024-03-22T10:47:28;35.50;;;14.30;;
50681;SDS011;36779;52.168;20.878;2024-03-22T10:50:03;30.30;;;12.60;;
50681;SDS011;36779;52.168;20.878;2024-03-22T10:52:58;27.20;;;11.60;;
50681;SDS011;36779;52.168;20.878;2024-03-22T10:55:55;20.70;;;9.70;;
50681;SDS011;36779;52.168;20.878;2024-03-22T10:58:50;28.40;;;11.80;;
50681;SDS011;36779;52.168;20.878;2024-03-22T11:01:49;29.50;;;11.40;;
50681;SDS011;36779;52.168;20.878;2024-03-22T11:04:42;25.90;;;11.60;;
50681;SDS011;36779;52.168;20.878;2024-03-22T11:07:44;26.60;;;11.50;;
50681;SDS011;36779;52.168;20.878;2024-03-22T11:10:36;23.50;;;11.70;;
50681;SDS011;36779;52.168;20.878;2024-03-22T11:13:23;30.60;;;13.10;;
50681;SDS011;36779;52.168;20.878;2024-03-22T11:16:15;27.20;;;11.90;;
50681;SDS011;36779;52.168;20.878;2024-03-22T11:19:14;28.80;;;12.70;;
50681;SDS011;36779;52.168;20.878;2024-03-22T11:22:07;28.20;;;11.40;;
50681;SDS011;36779;52.168;20.878;2024-03-22T11:25:00;30.40;;;13.00;;
50681;SDS011;36779;52.168;20.878;2024-03-22T11:27:47;25.50;;;12.00;;
50681;SDS011;36779;52.168;20.878;2024-03-22T11:30:33;26.10;;;11.60;;
50681;SDS011;36779;52.168;20.878;2024-03-22T11:33:22;25.90;;;12.20;;
50681;SDS011;36779;52.168;20.878;2024-03-22T11:36:16;20.20;;;9.20;;
50681;SDS011;36779;52.168;20.878;2024-03-22T11:39:24;25.50;;;11.70;;
50681;SDS011;36779;52.168;20.878;2024-03-22T11:42:16;27.50;;;11.00;;
50681;SDS011;36779;52.168;20.878;2024-03-22T11:45:01;21.70;;;8.70;;
50681;SDS011;36779;52.168;20.878;2024-03-22T11:47:55;30.30;;;14.10;;
50681;SDS011;36779;52.168;20.878;2024-03-22T11:50:51;27.30;;;12.90;;
50681;SDS011;36779;52.168;20.878;2024-03-22T11:53:25;28.60;;;13.20;;
50681;SDS011;36779;52.168;20.878;2024-03-22T11:56:00;25.60;;;11.30;;
50681;SDS011;36779;52.168;20.878;2024-03-22T11:58:58;22.10;;;9.50;;
50681;SDS011;36779;52.168;20.878;2024-03-22T12:01:34;22.70;;;9.20;;
50681;SDS011;36779;52.168;20.878;2024-03-22T12:04:23;17.50;;;8.10;;
50681;SDS011;36779;52.168;20.878;2024-03-22T12:06:57;19.30;;;8.80;;
50681;SDS011;36779;52.168;20.878;2024-03-22T12:09:30;15.90;;;8.50;;
50681;SDS011;36779;52.168;20.878;2024-03-22T12:12:12;20.70;;;8.20;;
50681;SDS011;36779;52.168;20.878;2024-03-22T12:14:44;19.30;;;8.30;;
50681;SDS011;36779;52.168;20.878;2024-03-22T12:17:36;14.60;;;5.70;;
50681;SDS011;36779;52.168;20.878;2024-03-22T12:20:23;20.20;;;7.10;;
50681;SDS011;36779;52.168;20.878;2024-03-22T12:23:11;16.80;;;7.80;;
50681;SDS011;36779;52.168;20.878;2024-03-22T12:25:56;16.30;;;6.10;;
50681;SDS011;36779;52.168;20.878;2024-03-22T12:28:31;17.20;;;7.00;;
50681;SDS011;36779;52.168;20.878;2024-03-22T12:31:07;19.90;;;7.90;;
50681;SDS011;36779;52.168;20.878;2024-03-22T12:33:43;24.00;;;9.20;;
50681;SDS011;36779;52.168;20.878;2024-03-22T12:36:27;13.30;;;6.00;;
50681;SDS011;36779;52.168;20.878;2024-03-22T12:39:01;18.70;;;8.40;;
50681;SDS011;36779;52.168;20.878;2024-03-22T12:41:53;17.10;;;7.50;;
50681;SDS011;36779;52.168;20.878;2024-03-22T12:44:25;17.80;;;8.20;;
50681;SDS011;36779;52.168;20.878;2024-03-22T12:47:07;15.90;;;6.90;;
50681;SDS011;36779;52.168;20.878;2024-03-22T12:49:39;15.80;;;6.50;;
50681;SDS011;36779;52.168;20.878;2024-03-22T12:52:14;22.60;;;9.80;;
50681;SDS011;36779;52.168;20.878;2024-03-22T12:54:46;23.10;;;9.40;;
50681;SDS011;36779;52.168;20.878;2024-03-22T12:57:38;21.30;;;8.60;;
50681;SDS011;36779;52.168;20.878;2024-03-22T13:00:11;20.40;;;8.40;;
50681;SDS011;36779;52.168;20.878;2024-03-22T13:03:09;24.10;;;10.10;;
50681;SDS011;36779;52.168;20.878;2024-03-22T13:05:55;24.00;;;9.50;;
50681;SDS011;36779;52.168;20.878;2024-03-22T13:08:47;40.20;;;14.40;;
50681;SDS011;36779;52.168;20.878;2024-03-22T13:11:18;28.60;;;10.90;;
50681;SDS011;36779;52.168;20.878;2024-03-22T13:13:54;44.20;;;14.50;;
50681;SDS011;36779;52.168;20.878;2024-03-22T13:16:26;43.10;;;14.90;;
50681;SDS011;36779;52.168;20.878;2024-03-22T13:19:18;26.60;;;10.70;;
50681;SDS011;36779;52.168;20.878;2024-03-22T13:22:03;56.20;;;15.50;;
50681;SDS011;36779;52.168;20.878;2024-03-22T13:24:42;49.20;;;15.70;;
50681;SDS011;36779;52.168;20.878;2024-03-22T13:27:17;54.40;;;16.20;;
50681;SDS011;36779;52.168;20.878;2024-03-22T13:30:03;31.10;;;12.90;;
50681;SDS011;36779;52.168;20.878;2024-03-22T13:32:53;22.30;;;9.20;;
50681;SDS011;36779;52.168;20.878;2024-03-22T13:35:30;19.90;;;9.00;;
50681;SDS011;36779;52.168;20.878;2024-03-22T13:38:22;16.30;;;8.10;;
50681;SDS011;36779;52.168;20.878;2024-03-22T13:40:58;17.80;;;8.90;;
50681;SDS011;36779;52.168;20.878;2024-03-22T13:43:35;17.10;;;9.60;;
50681;SDS011;36779;52.168;20.878;2024-03-22T13:46:09;19.90;;;8.30;;
50681;SDS011;36779;52.168;20.878;2024-03-22T13:48:58;18.70;;;8.20;;
50681;SDS011;36779;52.168;20.878;2024-03-22T13:52:10;21.10;;;8.90;;
50681;SDS011;36779;52.168;20.878;2024-03-22T13:55:02;16.70;;;8.90;;
50681;SDS011;36779;52.168;20.878;2024-03-22T13:57:38;16.40;;;8.20;;
50681;SDS011;36779;52.168;20.878;2024-03-22T14:00:13;16.40;;;8.60;;
50681;SDS011;36779;52.168;20.878;2024-03-22T14:03:08;19.50;;;9.20;;
50681;SDS011;36779;52.168;20.878;2024-03-22T14:06:00;17.90;;;8.70;;
50681;SDS011;36779;52.168;20.878;2024-03-22T14:08:53;21.10;;;9.70;;
50681;SDS011;36779;52.168;20.878;2024-03-22T14:11:32;22.40;;;10.80;;
50681;SDS011;36779;52.168;20.878;2024-03-22T14:14:21;20.60;;;9.60;;
50681;SDS011;36779;52.168;20.878;2024-03-22T14:17:14;27.50;;;11.40;;
50681;SDS011;36779;52.168;20.878;2024-03-22T14:19:49;31.00;;;11.30;;
50681;SDS011;36779;52.168;20.878;2024-03-22T14:22:42;22.30;;;10.30;;
50681;SDS011;36779;52.168;20.878;2024-03-22T14:25:35;28.70;;;12.50;;
50681;SDS011;36779;52.168;20.878;2024-03-22T14:28:18;36.10;;;14.00;;
50681;SDS011;36779;52.168;20.878;2024-03-22T14:31:11;21.30;;;10.60;;
50681;SDS011;36779;52.168;20.878;2024-03-22T14:34:05;20.90;;;10.50;;
50681;SDS011;36779;52.168;20.878;2024-03-22T14:36:58;18.90;;;9.20;;
50681;SDS011;36779;52.168;20.878;2024-03-22T14:39:30;20.60;;;9.30;;
50681;SDS011;36779;52.168;20.878;2024-03-22T14:42:22;18.40;;;8.40;;
50681;SDS011;36779;52.168;20.878;2024-03-22T14:44:55;19.50;;;8.70;;
50681;SDS011;36779;52.168;20.878;2024-03-22T14:47:40;22.30;;;9.20;;
50681;SDS011;36779;52.168;20.878;2024-03-22T14:50:35;21.20;;;9.90;;
50681;SDS011;36779;52.168;20.878;2024-03-22T14:53:11;18.80;;;9.10;;
50681;SDS011;36779;52.168;20.878;2024-03-22T14:56:03;19.90;;;9.50;;
50681;SDS011;36779;52.168;20.878;2024-03-22T14:58:57;19.10;;;9.40;;
50681;SDS011;36779;52.168;20.878;2024-03-22T15:01:49;23.70;;;9.70;;
50681;SDS011;36779;52.168;20.878;2024-03-22T15:04:34;20.60;;;10.10;;
50681;SDS011;36779;52.168;20.878;2024-03-22T15:07:25;22.30;;;10.30;;
50681;SDS011;36779;52.168;20.878;2024-03-22T15:10:21;21.00;;;10.30;;
50681;SDS011;36779;52.168;20.878;2024-03-22T15:13:15;28.10;;;11.80;;
50681;SDS011;36779;52.168;20.878;2024-03-22T15:16:08;22.60;;;10.20;;
50681;SDS011;36779;52.168;20.878;2024-03-22T15:19:04;25.00;;;11.40;;
50681;SDS011;36779;52.168;20.878;2024-03-22T15:21:56;36.80;;;16.20;;
50681;SDS011;36779;52.168;20.878;2024-03-22T15:24:51;34.80;;;16.80;;
50681;SDS011;36779;52.168;20.878;2024-03-22T15:27:43;37.00;;;15.90;;
50681;SDS011;36779;52.168;20.878;2024-03-22T15:30:38;46.00;;;17.40;;
50681;SDS011;36779;52.168;20.878;2024-03-22T15:33:23;42.60;;;15.90;;
50681;SDS011;36779;52.168;20.878;2024-03-22T15:36:18;32.90;;;16.00;;
50681;SDS011;36779;52.168;20.878;2024-03-22T15:39:10;31.00;;;14.30;;
50681;SDS011;36779;52.168;20.878;2024-03-22T15:42:03;36.60;;;20.20;;
50681;SDS011;36779;52.168;20.878;2024-03-22T15:44:35;25.60;;;12.00;;
50681;SDS011;36779;52.168;20.878;2024-03-22T15:47:21;24.80;;;10.60;;
50681;SDS011;36779;52.168;20.878;2024-03-22T15:49:55;25.90;;;12.30;;
50681;SDS011;36779;52.168;20.878;2024-03-22T15:52:37;26.10;;;13.10;;
50681;SDS011;36779;52.168;20.878;2024-03-22T15:58:17;22.40;;;11.90;;
50681;SDS011;36779;52.168;20.878;2024-03-22T16:01:09;21.70;;;10.80;;
50681;SDS011;36779;52.168;20.878;2024-03-22T16:03:44;27.10;;;14.10;;
50681;SDS011;36779;52.168;20.878;2024-03-22T16:06:27;27.00;;;14.10;;
50681;SDS011;36779;52.168;20.878;2024-03-22T16:09:20;26.80;;;13.90;;
50681;SDS011;36779;52.168;20.878;2024-03-22T16:11:55;21.90;;;10.90;;
50681;SDS011;36779;52.168;20.878;2024-03-22T16:14:47;21.00;;;9.90;;
50681;SDS011;36779;52.168;20.878;2024-03-22T16:17:39;20.90;;;10.10;;
50681;SDS011;36779;52.168;20.878;2024-03-22T16:20:34;20.90;;;11.50;;
50681;SDS011;36779;52.168;20.878;2024-03-22T16:23:39;25.20;;;11.80;;
50681;SDS011;36779;52.168;20.878;2024-03-22T16:26:30;19.70;;;10.10;;
50681;SDS011;36779;52.168;20.878;2024-03-22T16:29:22;23.00;;;10.90;;